Time;durP1;ratioP1;P1;durP2;ratioP2;P2;SDS_P1;SDS_P2;PMS_P1;PMS_P2;Temp;Humidity;BMP_temperature;BMP_pressure;BME280_temperature;BME280_humidity;BME280_pressure;Samples;Min_cycle;Max_cycle;Signal;HPM_P1;HPM_P2
2022/01/23 00:02:28;;;;;;;4.88;4.38;;;17.40;41.50;;;;;;5103694;28;20032;-37
2022/01/23 00:04:54;;;;;;;5.82;4.50;;;17.30;41.60;;;;;;5102836;28;20008;-36
2022/01/23 00:07:23;;;;;;;6.37;4.70;;;17.30;41.50;;;;;;5103580;28;20076;-37
2022/01/23 00:09:49;;;;;;;5.93;4.60;;;17.30;41.60;;;;;;5101558;28;20353;-36
2022/01/23 00:12:18;;;;;;;6.55;4.22;;;17.30;41.50;;;;;;5100677;28;20076;-38
2022/01/23 00:17:34;;;;;;;5.43;4.70;;;17.30;41.60;;;;;;5101758;28;20052;-36
2022/01/23 00:20:01;;;;;;;6.00;4.80;;;17.30;41.60;;;;;;5101162;28;20018;-36
2022/01/23 00:30:30;;;;;;;6.07;4.57;;;17.20;41.60;;;;;;5103195;28;20031;-37
2022/01/23 00:32:58;;;;;;;5.07;4.57;;;17.20;41.70;;;;;;5084944;28;20043;-37
2022/01/23 00:35:24;;;;;;;5.80;4.55;;;17.20;41.70;;;;;;5083052;28;20015;-37
2022/01/23 00:37:50;;;;;;;6.97;4.50;;;17.20;41.70;;;;;;5100041;28;20028;-37
2022/01/23 00:40:17;;;;;;;5.35;4.85;;;17.20;41.70;;;;;;5100830;28;20558;-37
2022/01/23 00:42:43;;;;;;;5.60;4.55;;;17.20;41.70;;;;;;5081457;28;20024;-37
2022/01/23 00:47:51;;;;;;;5.90;4.65;;;17.20;41.80;;;;;;5100509;28;20055;-37
2022/01/23 00:50:17;;;;;;;5.38;4.85;;;17.20;41.80;;;;;;5082769;28;20024;-37
2022/01/23 00:52:43;;;;;;;5.63;4.53;;;17.20;41.80;;;;;;5099978;28;20470;-36
2022/01/23 00:55:11;;;;;;;5.93;4.60;;;17.20;41.80;;;;;;5081351;28;20082;-37
2022/01/23 00:57:37;;;;;;;6.75;4.68;;;17.10;41.80;;;;;;5099786;28;20466;-36
2022/01/23 01:00:04;;;;;;;5.28;4.38;;;17.10;41.80;;;;;;5099968;28;20076;-36
2022/01/23 01:02:30;;;;;;;6.00;4.45;;;17.10;41.80;;;;;;5099930;28;20027;-37
2022/01/23 01:04:56;;;;;;;6.72;4.78;;;17.10;41.80;;;;;;5081336;28;20028;-37
2022/01/23 01:07:22;;;;;;;5.07;4.30;;;17.10;42.40;;;;;;5099712;28;20016;-37
2022/01/23 01:09:51;;;;;;;5.03;4.47;;;17.10;41.90;;;;;;5099021;28;20020;-36
2022/01/23 01:12:20;;;;;;;5.78;4.63;;;17.10;41.90;;;;;;5099489;28;20059;-37
2022/01/23 01:30:56;;;;;;;7.53;4.95;;;17.10;42.00;;;;;;5099821;28;20418;-36
2022/01/23 01:38:20;;;;;;;5.97;4.60;;;17.00;42.00;;;;;;5100326;28;20462;-37
2022/01/23 01:40:46;;;;;;;5.28;4.53;;;17.00;42.00;;;;;;5080982;28;20016;-36
2022/01/23 01:43:18;;;;;;;5.55;4.82;;;17.00;42.00;;;;;;5099147;28;20016;-35
2022/01/23 01:45:44;;;;;;;6.72;4.60;;;17.00;42.00;;;;;;5099661;28;20482;-34
2022/01/23 01:48:12;;;;;;;4.93;4.20;;;17.00;42.00;;;;;;5099024;28;20016;-35
2022/01/23 01:50:44;;;;;;;5.53;4.75;;;17.00;42.10;;;;;;5099204;28;20444;-36
2022/01/23 01:53:11;;;;;;;5.10;4.60;;;17.00;42.10;;;;;;5099321;28;20034;-36
2022/01/23 01:55:42;;;;;;;5.20;4.60;;;17.00;42.10;;;;;;5097634;28;20095;-36
2022/01/23 01:58:22;;;;;;;5.13;4.10;;;17.00;42.10;;;;;;5098549;28;20378;-35
2022/01/23 02:00:55;;;;;;;6.37;4.73;;;17.00;42.10;;;;;;5083176;28;20008;-35
2022/01/23 02:08:51;;;;;;;6.15;4.55;;;16.90;42.10;;;;;;5099251;28;20104;-36
2022/01/23 02:11:40;;;;;;;6.15;4.32;;;17.00;42.70;;;;;;5099639;28;20085;-36
2022/01/23 02:14:26;;;;;;;5.33;4.33;;;16.90;42.10;;;;;;5098475;28;20024;-36
2022/01/23 02:50:36;;;;;;;5.18;4.60;;;16.90;42.20;;;;;;5099006;28;20043;-36
2022/01/23 02:53:29;;;;;;;5.32;4.60;;;16.80;42.40;;;;;;5098962;28;20038;-35
2022/01/23 02:55:56;;;;;;;5.97;4.30;;;16.80;42.40;;;;;;5098713;28;20028;-36
2022/01/23 02:58:25;;;;;;;8.27;5.40;;;16.80;42.40;;;;;;5098430;28;20028;-35
2022/01/23 03:01:08;;;;;;;4.90;4.40;;;16.80;42.50;;;;;;5097998;28;20091;-36
2022/01/23 03:03:38;;;;;;;5.07;4.57;;;16.80;42.40;;;;;;5098468;28;20008;-35
2022/01/23 03:06:22;;;;;;;;;;;16.80;42.50;;;;;;5100061;28;20023;-36
2022/01/23 03:14:48;;;;;;;6.60;4.57;;;16.90;42.20;;;;;;5102202;28;20016;-36
2022/01/23 03:25:20;;;;;;;5.40;4.40;;;17.40;41.00;;;;;;5087227;28;20054;-35
2022/01/23 03:28:18;;;;;;;5.75;4.43;;;17.50;40.90;;;;;;5086874;28;20030;-36
2022/01/23 03:33:31;;;;;;;5.43;4.40;;;17.70;40.60;;;;;;5070981;28;20043;-36
2022/01/23 03:36:06;;;;;;;5.50;4.40;;;17.70;40.30;;;;;;5101460;28;20536;-36
2022/01/23 03:38:32;;;;;;;5.27;4.10;;;17.90;40.10;;;;;;5085032;28;20467;-36
2022/01/23 03:40:58;;;;;;;4.30;3.90;;;18.00;39.80;;;;;;5084767;28;20078;-36
2022/01/23 03:43:31;;;;;;;5.25;4.38;;;18.10;39.60;;;;;;5103061;28;20016;-35
2022/01/23 03:51:13;;;;;;;6.57;4.05;;;18.40;38.90;;;;;;5102677;28;20028;-35
2022/01/23 03:53:39;;;;;;;4.32;3.70;;;18.50;38.70;;;;;;5103654;28;20028;-35
2022/01/23 03:56:06;;;;;;;4.78;4.00;;;18.60;38.50;;;;;;5103141;28;20031;-36
2022/01/23 03:58:33;;;;;;;4.20;3.80;;;18.70;38.30;;;;;;5102821;28;20016;-36
2022/01/23 04:01:00;;;;;;;4.30;3.90;;;18.80;38.20;;;;;;5102842;28;20020;-36
2022/01/23 04:03:26;;;;;;;4.20;3.80;;;18.90;38.00;;;;;;5102472;28;20019;-35
2022/01/23 04:05:52;;;;;;;4.38;3.83;;;19.00;37.90;;;;;;5085584;28;20031;-36
2022/01/23 04:08:20;;;;;;;4.72;3.97;;;19.10;37.70;;;;;;5102544;28;20016;-37
2022/01/23 04:10:46;;;;;;;4.78;3.80;;;19.10;37.50;;;;;;5104362;28;20061;-37
2022/01/23 04:16:11;;;;;;;5.13;4.18;;;19.30;37.20;;;;;;5105334;28;20459;-37
2022/01/23 04:45:47;;;;;;;4.32;3.60;;;20.20;35.60;;;;;;5105269;28;20517;-37
2022/01/23 05:04:36;;;;;;;4.05;3.60;;;20.80;34.70;;;;;;5078664;28;20517;-37
2022/01/23 05:07:06;;;;;;;4.15;3.75;;;20.80;34.60;;;;;;5088337;28;20066;-37
2022/01/23 05:09:32;;;;;;;4.03;3.63;;;20.90;34.50;;;;;;5104705;28;20015;-37
2022/01/23 05:12:03;;;;;;;4.10;3.70;;;21.00;34.40;;;;;;5105047;28;20856;-37
2022/01/23 05:14:35;;;;;;;4.20;3.80;;;21.00;34.20;;;;;;5105304;28;20020;-37
2022/01/23 05:17:02;;;;;;;3.90;3.50;;;21.10;34.10;;;;;;5105138;28;20496;-37
2022/01/23 05:19:28;;;;;;;4.75;3.50;;;21.20;34.00;;;;;;5105319;28;20020;-36
2022/01/23 05:22:18;;;;;;;4.45;4.05;;;21.20;33.90;;;;;;5104720;28;20020;-36
2022/01/23 05:25:32;;;;;;;4.20;3.80;;;21.20;33.90;;;;;;5105977;28;20036;-37
2022/01/23 05:27:36;;;;;;;4.18;3.78;;;21.30;33.80;;;;;;5097159;28;20020;-36
2022/01/23 05:30:04;;;;;;;4.65;4.18;;;21.30;34.20;;;;;;5106665;28;20027;-36
2022/01/23 05:32:37;;;;;;;4.22;3.70;;;21.40;33.70;;;;;;5104935;28;20052;-37
2022/01/23 05:35:04;;;;;;;4.03;3.63;;;21.40;33.60;;;;;;5104996;28;20020;-36
2022/01/23 05:37:32;;;;;;;4.28;3.80;;;21.50;33.50;;;;;;5104560;28;20008;-37
2022/01/23 05:39:58;;;;;;;5.57;4.10;;;21.50;33.50;;;;;;5105227;28;20020;-37
2022/01/23 05:42:25;;;;;;;4.68;4.10;;;21.50;33.40;;;;;;5104706;28;20084;-37
2022/01/23 05:44:51;;;;;;;4.35;3.95;;;21.60;33.40;;;;;;5104953;28;20024;-38
2022/01/23 05:47:17;;;;;;;4.07;3.67;;;21.60;33.30;;;;;;5104463;28;20024;-36
2022/01/23 05:49:43;;;;;;;4.30;3.90;;;21.60;33.30;;;;;;5103834;28;20016;-36
2022/01/23 05:52:09;;;;;;;4.43;3.80;;;21.70;33.20;;;;;;5085543;28;20032;-37
2022/01/23 05:54:35;;;;;;;4.35;3.95;;;21.70;33.10;;;;;;5102868;28;20050;-36
2022/01/23 05:57:02;;;;;;;3.92;3.60;;;21.80;33.10;;;;;;5102141;28;20554;-36
2022/01/23 05:59:27;;;;;;;4.40;4.00;;;21.80;33.10;;;;;;5103033;28;20008;-37
2022/01/23 06:01:55;;;;;;;4.53;4.10;;;21.80;33.00;;;;;;5102932;28;20018;-36
2022/01/23 06:04:26;;;;;;;4.43;4.03;;;21.80;33.00;;;;;;5102012;28;20025;-36
2022/01/23 06:06:58;;;;;;;4.75;4.20;;;21.90;33.00;;;;;;5084930;28;20046;-36
2022/01/23 06:09:24;;;;;;;4.68;4.28;;;21.90;33.00;;;;;;5101256;28;20084;-36
2022/01/23 06:11:51;;;;;;;6.00;3.85;;;21.90;33.00;;;;;;5102465;28;20662;-36
2022/01/23 06:14:17;;;;;;;4.13;3.72;;;21.90;32.90;;;;;;5084607;28;20095;-35
2022/01/23 06:16:43;;;;;;;4.70;4.30;;;22.00;32.80;;;;;;5101901;28;20012;-36
2022/01/23 06:19:09;;;;;;;4.50;4.10;;;22.00;32.80;;;;;;5101719;28;20042;-36
2022/01/23 06:21:35;;;;;;;4.63;4.10;;;22.00;32.80;;;;;;5101927;28;20028;-36
2022/01/23 06:26:38;;;;;;;4.65;4.00;;;22.00;32.70;;;;;;5102213;28;20049;-36
2022/01/23 06:29:04;;;;;;;4.80;4.05;;;22.00;32.60;;;;;;5066957;28;20042;-37
2022/01/23 06:31:31;;;;;;;4.47;4.03;;;22.10;32.70;;;;;;5102378;28;20058;-36
2022/01/23 06:33:58;;;;;;;4.53;4.13;;;22.10;32.60;;;;;;5101812;28;20016;-36
2022/01/23 06:36:24;;;;;;;4.35;3.95;;;22.20;32.60;;;;;;5102092;28;20020;-37
2022/01/23 06:38:52;;;;;;;4.32;3.92;;;22.20;32.50;;;;;;5083177;28;20024;-37
2022/01/23 06:41:17;;;;;;;5.50;3.97;;;22.20;32.40;;;;;;5106285;28;20390;-37
2022/01/23 06:43:43;;;;;;;4.53;4.00;;;22.20;32.40;;;;;;5089692;28;20024;-36
2022/01/23 06:46:09;;;;;;;4.43;4.03;;;22.20;32.50;;;;;;5107574;28;20027;-36
2022/01/23 06:48:35;;;;;;;4.82;3.88;;;22.20;32.40;;;;;;5107612;28;20031;-36
2022/01/23 06:51:01;;;;;;;4.57;4.18;;;22.30;32.50;;;;;;5107158;28;20398;-37
2022/01/23 06:53:26;;;;;;;4.55;4.15;;;22.20;32.40;;;;;;5107446;28;20044;-37
2022/01/23 06:55:52;;;;;;;4.80;4.30;;;22.20;32.40;;;;;;5089489;28;20486;-36
2022/01/23 06:58:18;;;;;;;4.40;4.00;;;22.30;32.40;;;;;;5107701;28;20069;-38
2022/01/23 07:00:44;;;;;;;6.20;4.47;;;22.20;32.30;;;;;;5107566;28;20016;-38
2022/01/23 07:03:12;;;;;;;5.00;4.50;;;22.30;32.30;;;;;;5088895;28;20062;-36
2022/01/23 07:05:37;;;;;;;4.65;4.20;;;22.30;32.20;;;;;;5106573;28;20031;-35
2022/01/23 07:08:04;;;;;;;4.32;3.92;;;22.40;32.30;;;;;;5088753;28;20013;-37
2022/01/23 07:10:29;;;;;;;4.72;4.22;;;22.40;32.20;;;;;;5106234;28;20055;-37
2022/01/23 07:12:55;;;;;;;4.97;4.47;;;22.40;32.10;;;;;;5087957;28;20020;-38
2022/01/23 07:15:21;;;;;;;4.50;4.05;;;22.40;32.10;;;;;;5105949;28;20018;-36
2022/01/23 07:17:47;;;;;;;4.80;4.35;;;22.50;32.10;;;;;;5105622;28;20023;-37
2022/01/23 07:20:13;;;;;;;5.00;4.32;;;22.40;32.10;;;;;;5105568;28;20462;-37
2022/01/23 07:22:38;;;;;;;4.82;4.43;;;22.50;32.20;;;;;;5087574;28;20410;-37
2022/01/23 07:25:05;;;;;;;4.60;4.20;;;22.50;32.10;;;;;;5104367;28;20107;-37
2022/01/23 07:27:36;;;;;;;4.80;4.40;;;22.50;32.00;;;;;;5103708;28;20458;-38
2022/01/23 07:30:04;;;;;;;5.25;4.20;;;22.50;31.90;;;;;;5086276;28;20028;-36
2022/01/23 07:32:30;;;;;;;4.70;4.20;;;22.50;31.90;;;;;;5102782;28;20022;-36
2022/01/23 07:34:56;;;;;;;4.88;4.20;;;22.50;31.90;;;;;;5085142;28;20099;-38
2022/01/23 07:37:22;;;;;;;4.80;4.15;;;22.50;31.90;;;;;;5103286;28;20016;-37
2022/01/23 07:39:47;;;;;;;5.00;4.50;;;22.60;32.00;;;;;;5085485;28;20042;-38
2022/01/23 07:42:14;;;;;;;4.82;4.32;;;22.60;31.90;;;;;;5104299;28;20016;-37
2022/01/23 07:44:41;;;;;;;4.55;4.15;;;22.60;31.90;;;;;;5104035;28;20048;-38
2022/01/23 07:47:07;;;;;;;4.80;4.40;;;22.60;31.80;;;;;;5103863;28;20043;-38
2022/01/23 07:49:33;;;;;;;5.18;4.57;;;22.60;31.80;;;;;;5104033;28;20093;-36
2022/01/23 07:52:01;;;;;;;4.40;4.00;;;22.70;31.80;;;;;;5102034;28;20024;-37
2022/01/23 07:54:27;;;;;;;4.70;4.28;;;22.60;31.80;;;;;;5084519;28;20043;-39
2022/01/23 07:56:52;;;;;;;4.40;4.00;;;22.60;31.70;;;;;;5101742;28;20028;-37
2022/01/23 07:59:19;;;;;;;4.35;3.95;;;22.70;31.70;;;;;;5101867;28;20548;-37
2022/01/23 08:01:45;;;;;;;4.78;4.28;;;22.70;31.60;;;;;;5101866;28;20099;-37
2022/01/23 08:04:11;;;;;;;4.90;4.40;;;22.70;31.70;;;;;;5102238;28;20479;-38
2022/01/23 08:06:41;;;;;;;4.55;4.15;;;22.70;31.60;;;;;;5102578;28;20050;-39
2022/01/23 08:09:08;;;;;;;5.00;4.50;;;22.80;31.60;;;;;;5084354;28;20486;-37
2022/01/23 08:11:34;;;;;;;5.13;4.50;;;22.80;31.60;;;;;;5100187;28;20024;-37
2022/01/23 08:13:59;;;;;;;4.43;4.03;;;22.80;31.60;;;;;;5099805;28;20020;-37
2022/01/23 08:16:26;;;;;;;4.22;3.83;;;22.80;31.60;;;;;;5081523;28;20020;-36
2022/01/23 08:18:52;;;;;;;5.30;4.43;;;22.80;31.60;;;;;;5099873;28;20012;-38
2022/01/23 08:21:18;;;;;;;4.28;3.88;;;22.80;31.60;;;;;;5081374;28;20036;-37
2022/01/23 08:23:44;;;;;;;4.28;3.88;;;22.80;31.50;;;;;;5099029;28;20031;-38
2022/01/23 08:26:10;;;;;;;4.53;4.13;;;22.80;31.50;;;;;;5080899;28;20030;-38
2022/01/23 08:28:36;;;;;;;4.88;4.25;;;22.90;31.50;;;;;;5080877;28;20028;-36
2022/01/23 08:31:01;;;;;;;4.53;4.13;;;22.90;31.60;;;;;;5081665;28;20092;-37
2022/01/23 08:33:28;;;;;;;4.47;4.07;;;22.90;31.50;;;;;;5099154;28;20028;-37
2022/01/23 08:35:56;;;;;;;4.93;4.43;;;22.90;31.50;;;;;;5080489;28;20166;-38
2022/01/23 08:38:25;;;;;;;4.63;4.07;;;22.90;31.40;;;;;;5098220;28;20016;-36
2022/01/23 08:43:35;;;;;;;4.63;4.22;;;23.00;31.30;;;;;;5097579;28;20035;-36
2022/01/23 08:46:01;;;;;;;5.15;4.65;;;23.00;31.20;;;;;;5079109;28;20012;-36
2022/01/23 08:48:26;;;;;;;4.90;4.40;;;23.00;31.30;;;;;;5096653;28;20470;-37
2022/01/23 08:50:53;;;;;;;4.70;4.30;;;23.00;31.30;;;;;;5079090;28;20096;-37
2022/01/23 08:53:20;;;;;;;4.72;4.28;;;23.00;31.20;;;;;;5096793;28;20044;-42
2022/01/23 08:55:47;;;;;;;4.57;4.18;;;23.00;31.20;;;;;;5081840;28;20027;-39
2022/01/23 08:58:14;;;;;;;4.75;4.07;;;23.00;31.20;;;;;;5065416;28;20016;-39
2022/01/23 09:00:40;;;;;;;4.63;4.00;;;23.10;31.20;;;;;;5100243;28;20004;-40
2022/01/23 09:03:05;;;;;;;4.65;4.25;;;23.00;31.20;;;;;;5099481;28;20080;-39
2022/01/23 09:05:31;;;;;;;4.60;4.20;;;23.10;31.20;;;;;;5080521;28;20474;-39
2022/01/23 09:07:57;;;;;;;4.10;3.70;;;23.00;31.10;;;;;;5098560;28;20017;-39
2022/01/23 09:10:28;;;;;;;4.78;4.30;;;23.10;31.10;;;;;;5098425;28;20020;-39
2022/01/23 09:13:08;;;;;;;4.38;3.88;;;23.10;31.10;;;;;;5097927;28;20031;-40
2022/01/23 09:15:33;;;;;;;4.90;4.10;;;23.10;31.00;;;;;;5098266;28;20069;-38
2022/01/23 09:17:59;;;;;;;4.43;4.03;;;23.10;31.10;;;;;;5080364;28;20016;-36
2022/01/23 09:20:25;;;;;;;4.68;4.22;;;23.10;31.10;;;;;;5098261;28;20012;-37
2022/01/23 09:23:11;;;;;;;4.38;3.97;;;23.10;31.10;;;;;;5097278;28;20039;-37
2022/01/23 09:25:37;;;;;;;5.32;4.22;;;23.10;31.10;;;;;;5079073;28;20024;-38
2022/01/23 09:28:03;;;;;;;4.65;4.25;;;23.10;31.00;;;;;;5096748;28;20547;-37
2022/01/23 09:30:51;;;;;;;4.95;4.20;;;23.10;31.00;;;;;;5081417;28;20097;-37
2022/01/23 09:33:17;;;;;;;4.85;4.20;;;23.20;31.00;;;;;;5097320;28;20036;-37
2022/01/23 09:35:43;;;;;;;4.78;4.35;;;23.20;31.00;;;;;;5098118;28;20020;-37
2022/01/23 09:38:11;;;;;;;4.47;4.07;;;23.20;30.90;;;;;;5080120;28;20091;-37
2022/01/23 09:40:39;;;;;;;5.00;4.20;;;23.20;30.90;;;;;;5095553;28;20416;-37
2022/01/23 09:43:06;;;;;;;5.75;4.50;;;23.30;30.90;;;;;;5094887;28;20013;-39
2022/01/23 09:45:32;;;;;;;4.60;4.10;;;23.30;30.90;;;;;;5094808;28;20013;-36
2022/01/23 09:47:59;;;;;;;4.90;4.40;;;23.20;30.80;;;;;;5076862;28;20819;-38
2022/01/23 09:50:26;;;;;;;5.05;4.30;;;23.20;30.80;;;;;;5077467;28;20031;-37
2022/01/23 09:52:55;;;;;;;4.65;4.25;;;23.30;30.90;;;;;;5094754;28;20494;-38
2022/01/23 09:55:21;;;;;;;6.70;4.82;;;23.30;30.90;;;;;;5076691;28;20086;-37
2022/01/23 09:57:48;;;;;;;5.00;4.50;;;23.30;30.90;;;;;;5094695;28;20016;-37
2022/01/23 10:00:16;;;;;;;4.68;4.25;;;23.30;30.80;;;;;;5076882;28;20008;-36
2022/01/23 10:02:42;;;;;;;4.93;4.43;;;23.30;30.80;;;;;;5095122;28;20020;-37
2022/01/23 10:05:08;;;;;;;5.25;4.75;;;23.30;31.10;;;;;;5094869;28;20016;-37
2022/01/23 10:07:38;;;;;;;4.72;4.30;;;23.30;30.70;;;;;;5078025;28;20020;-37
2022/01/23 10:10:14;;;;;;;5.45;4.47;;;23.30;30.60;;;;;;5097550;28;20023;-38
2022/01/23 10:12:41;;;;;;;4.90;4.40;;;23.40;30.60;;;;;;5097339;28;20045;-37
2022/01/23 10:15:08;;;;;;;4.50;4.10;;;23.40;30.60;;;;;;5078256;28;20004;-37
2022/01/23 10:17:34;;;;;;;4.50;3.97;;;23.40;31.20;;;;;;5097909;28;20004;-37
2022/01/23 10:20:01;;;;;;;4.80;4.20;;;23.40;30.60;;;;;;5097524;28;20030;-39
2022/01/23 10:22:30;;;;;;;4.95;4.45;;;23.40;31.20;;;;;;5096855;28;20027;-37
2022/01/23 10:25:04;;;;;;;4.70;4.30;;;23.40;30.60;;;;;;5078608;28;20012;-36
2022/01/23 10:27:49;;;;;;;4.70;4.20;;;23.50;30.60;;;;;;5095300;28;20023;-38
2022/01/23 10:30:23;;;;;;;4.93;4.20;;;23.40;30.60;;;;;;5080492;28;20483;-38
2022/01/23 10:33:17;;;;;;;4.82;4.30;;;23.40;30.60;;;;;;5095176;28;20027;-36
2022/01/23 10:36:08;;;;;;;4.75;4.25;;;23.40;30.60;;;;;;5096426;28;20109;-37
2022/01/23 10:38:40;;;;;;;5.10;4.60;;;23.40;30.60;;;;;;5096117;28;20533;-36
2022/01/23 10:49:52;;;;;;;4.88;4.35;;;23.50;30.50;;;;;;5095296;28;20479;-37
2022/01/23 10:52:27;;;;;;;5.03;4.53;;;23.50;30.40;;;;;;5095784;28;20032;-37
2022/01/23 10:54:53;;;;;;;5.07;4.53;;;23.50;30.40;;;;;;5100115;28;20032;-37
2022/01/23 10:57:20;;;;;;;5.70;4.50;;;23.50;30.40;;;;;;5100246;28;20382;-37
2022/01/23 10:59:48;;;;;;;4.90;4.38;;;23.50;30.40;;;;;;5100335;28;20017;-38
2022/01/23 11:02:25;;;;;;;4.97;4.53;;;23.50;30.30;;;;;;5100541;28;20020;-38
2022/01/23 11:04:57;;;;;;;6.90;4.90;;;23.60;30.30;;;;;;5101188;28;20102;-37
2022/01/23 11:07:24;;;;;;;5.25;4.47;;;23.60;30.30;;;;;;5100800;28;20035;-37
2022/01/23 11:09:58;;;;;;;5.20;4.70;;;23.50;30.40;;;;;;5096012;28;20036;-38
2022/01/23 11:17:21;;;;;;;5.00;4.50;;;23.40;30.50;;;;;;5096084;28;20121;-37
2022/01/23 11:18:34;;;;;;;5.10;4.60;;;23.20;30.80;;;;;;5096295;28;20043;-36
2022/01/23 11:21:13;;;;;;;5.38;4.82;;;23.10;30.90;;;;;;5097276;28;20011;-37
2022/01/23 11:23:39;;;;;;;5.80;4.88;;;23.10;31.10;;;;;;5098256;28;20004;-37
2022/01/23 11:26:08;;;;;;;5.63;5.03;;;22.90;31.20;;;;;;5101666;28;20016;-37
2022/01/23 11:28:44;;;;;;;5.28;4.78;;;22.90;31.40;;;;;;5104602;28;20023;-39
2022/01/23 11:31:12;;;;;;;5.68;4.90;;;22.70;31.50;;;;;;5104238;28;20024;-37
2022/01/23 11:33:38;;;;;;;5.47;4.90;;;22.60;31.60;;;;;;5104777;28;20020;-38
2022/01/23 11:36:04;;;;;;;5.22;4.72;;;22.50;31.80;;;;;;5105625;28;20008;-37
2022/01/23 11:38:30;;;;;;;6.07;5.05;;;22.40;32.00;;;;;;5103853;28;20009;-37
2022/01/23 11:55:32;;;;;;;5.88;5.28;;;21.90;32.90;;;;;;5021649;28;20104;-38
2022/01/23 11:57:58;;;;;;;6.72;5.53;;;21.80;33.10;;;;;;5020849;28;20040;-37
2022/01/23 12:00:27;;;;;;;6.03;5.28;;;21.70;33.20;;;;;;5021191;28;20017;-38
2022/01/23 12:03:19;;;;;;;5.60;5.10;;;21.50;33.40;;;;;;5022142;28;20508;-38
2022/01/23 12:05:49;;;;;;;6.57;5.45;;;21.50;33.60;;;;;;5015312;28;20026;-37
2022/01/23 12:08:21;;;;;;;;;;;21.40;33.70;;;;;;5022579;28;20084;-36
2022/01/23 12:16:34;;;;;;;7.03;5.63;;;21.20;34.00;;;;;;5024355;28;20021;-38
2022/01/23 12:19:19;;;;;;;5.85;5.28;;;21.10;34.20;;;;;;5089714;28;20169;-37
2022/01/23 12:21:45;;;;;;;6.07;5.47;;;21.00;34.30;;;;;;5102490;28;20367;-37
2022/01/23 12:24:13;;;;;;;6.28;5.68;;;20.90;34.40;;;;;;5099360;28;20008;-37
2022/01/23 12:26:39;;;;;;;6.90;6.13;;;20.90;34.60;;;;;;5097591;28;20028;-37
2022/01/23 12:29:12;;;;;;;7.28;5.95;;;20.80;34.60;;;;;;5097062;28;20013;-37
2022/01/23 12:31:38;;;;;;;6.50;5.80;;;20.80;34.70;;;;;;5097173;28;20028;-37
2022/01/23 12:34:04;;;;;;;6.20;5.57;;;20.70;34.80;;;;;;5079952;28;20015;-37
2022/01/23 12:36:31;;;;;;;6.55;5.80;;;20.70;34.90;;;;;;5098779;28;20021;-37
2022/01/23 12:39:09;;;;;;;7.03;6.28;;;20.60;34.90;;;;;;5096828;28;20016;-37
2022/01/23 12:41:39;;;;;;;7.88;6.22;;;20.50;35.00;;;;;;5098612;28;20031;-37
2022/01/23 12:44:29;;;;;;;7.32;6.05;;;20.50;35.20;;;;;;5099840;28;20020;-37
2022/01/23 12:46:59;;;;;;;7.65;6.10;;;20.40;35.30;;;;;;5097375;28;20069;-38
2022/01/23 12:49:35;;;;;;;6.80;5.88;;;20.40;35.40;;;;;;5097160;28;20019;-37
2022/01/23 12:52:08;;;;;;;7.65;6.20;;;20.30;35.50;;;;;;5096059;28;20077;-37
2022/01/23 12:54:46;;;;;;;6.38;5.78;;;20.30;35.50;;;;;;5096271;28;20040;-37
2022/01/23 12:57:15;;;;;;;7.28;6.32;;;20.30;35.50;;;;;;5096395;28;20013;-35
2022/01/23 12:59:43;;;;;;;7.03;5.97;;;20.20;35.60;;;;;;5096315;28;20024;-36
2022/01/23 13:02:16;;;;;;;6.85;6.00;;;20.20;35.70;;;;;;5096823;28;20265;-36
2022/01/23 13:04:46;;;;;;;7.45;6.13;;;20.10;35.90;;;;;;5096110;28;20039;-36
2022/01/23 13:07:20;;;;;;;7.25;5.95;;;20.00;36.00;;;;;;5096569;28;20031;-36
2022/01/23 13:17:57;;;;;;;;;;;19.90;36.30;;;;;;5081070;28;20019;-36
2022/01/23 13:32:00;;;;;;;;;;;19.70;36.70;;;;;;5097739;28;20070;-35
2022/01/23 13:34:27;;;;;;;7.10;6.32;;;19.60;36.70;;;;;;5097413;28;19900;-35
2022/01/23 13:36:56;;;;;;;6.60;5.90;;;19.50;36.80;;;;;;5097364;28;20019;-34
2022/01/23 13:39:29;;;;;;;8.27;6.40;;;19.50;36.90;;;;;;5097055;28;20073;-35
2022/01/23 13:42:25;;;;;;;7.97;7.07;;;19.50;37.00;;;;;;5095994;28;20047;-35
2022/01/23 13:53:38;;;;;;;7.90;6.38;;;19.40;37.10;;;;;;5014210;28;20108;-36
2022/01/23 13:59:37;;;;;;;7.20;6.00;;;19.30;37.20;;;;;;5013813;28;20021;-36
2022/01/23 14:02:18;;;;;;;8.25;6.90;;;19.30;37.20;;;;;;5014393;28;20063;-36
2022/01/23 14:04:51;;;;;;;7.97;6.50;;;19.30;37.30;;;;;;5014420;28;20501;-36
2022/01/23 14:07:19;;;;;;;7.80;6.95;;;19.30;37.40;;;;;;5014278;28;20038;-36
2022/01/23 14:09:45;;;;;;;7.80;7.00;;;19.20;37.40;;;;;;5017152;28;20018;-36
2022/01/23 14:12:12;;;;;;;8.98;7.40;;;19.20;37.40;;;;;;5017970;28;20045;-36
2022/01/23 14:15:05;;;;;;;7.88;7.00;;;19.10;37.40;;;;;;5018753;28;20026;-36
2022/01/23 14:17:36;;;;;;;8.48;7.13;;;19.10;37.50;;;;;;5019426;28;20018;-36
2022/01/23 14:20:07;;;;;;;8.23;7.43;;;19.10;37.60;;;;;;5020732;28;20397;-36
2022/01/23 14:22:35;;;;;;;8.25;7.45;;;19.00;37.70;;;;;;5099255;28;20040;-37
2022/01/23 14:25:20;;;;;;;7.55;6.75;;;19.00;37.80;;;;;;5102397;28;20024;-36
2022/01/23 14:28:14;;;;;;;7.68;6.90;;;19.00;38.00;;;;;;5102097;28;20016;-37
2022/01/23 14:30:49;;;;;;;7.70;6.90;;;18.90;37.90;;;;;;5100694;28;20020;-36
2022/01/23 14:33:28;;;;;;;8.13;7.00;;;18.90;38.00;;;;;;5099026;28;20108;-36
2022/01/23 14:35:53;;;;;;;8.85;7.40;;;18.90;38.10;;;;;;5099245;28;20373;-36
2022/01/23 14:38:22;;;;;;;8.05;6.95;;;18.80;38.10;;;;;;5100567;28;20036;-36
2022/01/23 14:40:57;;;;;;;8.00;7.13;;;18.80;38.20;;;;;;5100829;28;20083;-36
2022/01/23 14:43:29;;;;;;;8.15;6.93;;;18.80;38.20;;;;;;5099878;28;20020;-38
2022/01/23 14:45:56;;;;;;;8.30;7.00;;;18.70;38.20;;;;;;5082175;28;20047;-36
2022/01/23 14:48:23;;;;;;;9.52;7.25;;;18.70;38.30;;;;;;5082056;28;20016;-37
2022/01/23 14:50:52;;;;;;;8.50;7.40;;;18.70;38.30;;;;;;5100187;28;20024;-36
2022/01/23 14:53:19;;;;;;;7.85;7.05;;;18.70;38.30;;;;;;5099597;28;20032;-36
2022/01/23 14:55:50;;;;;;;8.38;7.50;;;18.60;38.30;;;;;;5097207;28;20020;-36
2022/01/23 14:58:21;;;;;;;8.60;7.70;;;18.60;38.30;;;;;;5078305;28;20016;-36
2022/01/23 15:00:51;;;;;;;9.25;7.82;;;18.60;38.40;;;;;;5095354;28;20024;-36
2022/01/23 15:03:18;;;;;;;8.60;7.60;;;18.60;38.40;;;;;;5098745;28;20482;-37
2022/01/23 15:05:44;;;;;;;8.30;7.43;;;18.60;39.00;;;;;;5099159;28;20077;-37
2022/01/23 15:08:12;;;;;;;8.07;7.10;;;18.60;38.50;;;;;;5098856;28;20387;-37
2022/01/23 15:10:38;;;;;;;8.15;7.28;;;18.60;38.50;;;;;;5099746;28;20028;-37
2022/01/23 15:13:05;;;;;;;8.45;7.13;;;18.50;38.50;;;;;;5098887;28;20032;-37
2022/01/23 15:15:31;;;;;;;8.40;7.50;;;18.50;38.50;;;;;;5098866;28;20027;-38
2022/01/23 15:17:57;;;;;;;8.77;7.68;;;18.50;38.50;;;;;;5080826;28;20024;-37
2022/01/23 15:20:23;;;;;;;8.00;7.20;;;18.50;38.60;;;;;;5081938;28;20369;-37
2022/01/23 15:22:49;;;;;;;8.90;7.07;;;18.40;38.60;;;;;;5081856;28;20016;-37
2022/01/23 15:25:16;;;;;;;9.23;7.53;;;18.40;38.60;;;;;;5100316;28;20020;-38
2022/01/23 15:27:42;;;;;;;8.52;7.70;;;18.40;38.60;;;;;;5100228;28;20054;-37
2022/01/23 15:30:10;;;;;;;8.07;7.28;;;18.40;38.70;;;;;;5100953;28;20027;-37
2022/01/23 15:32:36;;;;;;;8.45;7.55;;;18.40;38.70;;;;;;5100918;28;20020;-37
2022/01/23 15:35:03;;;;;;;8.43;7.63;;;18.40;38.70;;;;;;5082901;28;20479;-37
2022/01/23 15:37:29;;;;;;;8.90;7.22;;;18.30;38.70;;;;;;5100238;28;20015;-37
2022/01/23 15:39:55;;;;;;;8.73;7.82;;;18.40;38.80;;;;;;5080252;28;20020;-38
2022/01/23 15:42:22;;;;;;;7.82;7.00;;;18.30;38.70;;;;;;5098704;28;20107;-37
2022/01/23 15:44:47;;;;;;;8.43;7.45;;;18.30;38.70;;;;;;5097897;28;20117;-37
2022/01/23 15:47:13;;;;;;;10.48;7.70;;;18.30;38.80;;;;;;5097787;28;20016;-37
2022/01/23 15:49:39;;;;;;;9.23;7.40;;;18.30;38.90;;;;;;5098364;28;20016;-36
2022/01/23 15:52:05;;;;;;;9.40;7.47;;;18.30;38.90;;;;;;5080506;28;20131;-37
2022/01/23 15:54:31;;;;;;;8.48;7.57;;;18.20;38.80;;;;;;5081180;28;20055;-37
2022/01/23 15:56:57;;;;;;;9.23;7.97;;;18.20;38.80;;;;;;5099650;28;20424;-37
2022/01/23 15:59:23;;;;;;;8.57;7.57;;;18.20;38.90;;;;;;5081416;28;20015;-37
2022/01/23 16:01:50;;;;;;;9.05;7.43;;;18.20;38.90;;;;;;5099205;28;20027;-37
2022/01/23 16:04:16;;;;;;;7.80;7.00;;;18.20;38.90;;;;;;5099645;28;20149;-37
2022/01/23 16:06:42;;;;;;;8.85;7.95;;;18.20;38.90;;;;;;5082103;28;20027;-36
2022/01/23 16:09:08;;;;;;;8.48;7.38;;;18.10;38.90;;;;;;5081457;28;20016;-36
2022/01/23 16:11:34;;;;;;;8.93;7.35;;;18.10;38.90;;;;;;5098873;28;20020;-37
2022/01/23 16:14:00;;;;;;;7.70;6.97;;;18.20;39.00;;;;;;5064811;28;20039;-36
2022/01/23 16:16:25;;;;;;;8.32;7.47;;;18.10;39.00;;;;;;5101423;28;20012;-37
2022/01/23 16:18:51;;;;;;;9.02;8.13;;;18.10;39.00;;;;;;5082503;28;20020;-36
2022/01/23 16:21:19;;;;;;;9.98;8.25;;;18.10;39.00;;;;;;5082867;28;20020;-37
2022/01/23 16:23:45;;;;;;;9.55;7.72;;;18.10;39.00;;;;;;5083399;28;20055;-37
2022/01/23 16:26:16;;;;;;;9.60;7.95;;;18.10;39.10;;;;;;5101746;28;20020;-38
2022/01/23 16:28:43;;;;;;;10.13;7.60;;;18.00;39.00;;;;;;5102167;28;20012;-38
2022/01/23 16:31:09;;;;;;;9.05;7.97;;;18.10;39.10;;;;;;5101606;28;20016;-37